createdAt,value
2018-02-13T00:01:29.279Z,17.97
2018-02-13T00:03:56.767Z,20.07
2018-02-13T00:06:25.013Z,16.83
2018-02-13T00:08:52.495Z,16.90
2018-02-13T00:11:20.783Z,18.40
2018-02-13T00:13:49.028Z,19.03
2018-02-13T00:16:16.512Z,16.17
2018-02-13T00:18:44.746Z,16.43
2018-02-13T00:21:12.234Z,15.80
2018-02-13T00:23:39.728Z,17.10
2018-02-13T00:26:07.207Z,18.73
2018-02-13T00:28:34.678Z,16.83
2018-02-13T00:31:02.165Z,18.47
2018-02-13T00:33:29.627Z,19.17
2018-02-13T00:35:57.893Z,18.90
2018-02-13T00:38:25.367Z,16.90
2018-02-13T00:40:53.610Z,17.23
2018-02-13T00:43:21.083Z,17.87
2018-02-13T00:45:48.564Z,17.63
2018-02-13T00:48:16.807Z,17.63
2018-02-13T00:50:44.282Z,16.90
2018-02-13T00:53:11.753Z,17.53
2018-02-13T00:55:39.996Z,19.00
2018-02-13T00:58:07.474Z,16.50
2018-02-13T01:00:34.949Z,16.13
2018-02-13T01:03:03.191Z,15.07
2018-02-13T01:05:30.662Z,13.80
2018-02-13T01:07:58.142Z,17.20
2018-02-13T01:10:26.375Z,15.33
2018-02-13T01:12:53.867Z,17.00
2018-02-13T01:15:21.331Z,16.43
2018-02-13T01:17:49.570Z,16.60
2018-02-13T01:20:17.044Z,14.40
2018-02-13T01:22:44.522Z,15.60
2018-02-13T01:25:12.754Z,15.93
2018-02-13T01:27:40.259Z,14.97
2018-02-13T01:30:08.494Z,16.00
2018-02-13T01:32:35.982Z,16.60
2018-02-13T01:35:03.446Z,16.03
2018-02-13T01:37:31.695Z,14.40
2018-02-13T01:39:59.172Z,16.73
2018-02-13T01:42:26.650Z,16.37
2018-02-13T01:44:54.118Z,15.50
2018-02-13T01:47:21.598Z,15.90
2018-02-13T01:49:49.067Z,15.97
2018-02-13T01:52:16.559Z,17.50
2018-02-13T01:54:44.032Z,17.40
2018-02-13T01:57:12.279Z,17.00
2018-02-13T01:59:39.746Z,16.10
2018-02-13T02:02:07.218Z,16.23
2018-02-13T02:04:35.495Z,17.27
2018-02-13T02:07:02.962Z,17.60
2018-02-13T02:09:31.193Z,16.40
2018-02-13T02:11:58.676Z,16.10
2018-02-13T02:14:26.154Z,17.30
2018-02-13T02:16:54.419Z,16.43
2018-02-13T02:19:22.657Z,15.97
2018-02-13T02:21:50.146Z,17.33
2018-02-13T02:24:17.622Z,16.37
2018-02-13T02:26:45.858Z,18.00
2018-02-13T02:29:13.334Z,19.90
2018-02-13T02:31:40.820Z,19.30
2018-02-13T02:34:09.066Z,20.20
2018-02-13T02:36:36.546Z,19.73
2018-02-13T02:39:04.791Z,17.73
2018-02-13T02:41:32.278Z,16.93
2018-02-13T02:44:00.515Z,16.20
2018-02-13T02:46:27.992Z,18.73
2018-02-13T02:48:55.479Z,17.40
2018-02-13T02:51:22.970Z,18.27
2018-02-13T02:53:50.455Z,17.17
2018-02-13T02:56:17.929Z,17.80
2018-02-13T02:58:45.403Z,16.77
2018-02-13T03:01:13.639Z,17.00
2018-02-13T03:03:41.120Z,17.57
2018-02-13T03:06:09.366Z,15.80
2018-02-13T03:08:36.842Z,16.03
2018-02-13T03:11:04.328Z,15.37
2018-02-13T03:13:32.573Z,15.63
2018-02-13T03:16:00.056Z,14.70
2018-02-13T03:18:27.526Z,15.90
2018-02-13T03:20:55.788Z,14.50
2018-02-13T03:23:23.263Z,15.50
2018-02-13T03:25:51.505Z,17.13
2018-02-13T03:28:18.975Z,16.93
2018-02-13T03:30:46.453Z,16.87
2018-02-13T03:33:14.704Z,17.77
2018-02-13T03:35:42.178Z,16.50
2018-02-13T03:38:10.443Z,17.23
2018-02-13T03:40:37.916Z,17.10
2018-02-13T03:43:06.167Z,15.77
2018-02-13T03:45:33.647Z,17.30
2018-02-13T03:48:01.127Z,16.80
2018-02-13T03:50:28.595Z,17.67
2018-02-13T03:52:56.091Z,16.50
2018-02-13T03:55:23.574Z,18.40
2018-02-13T03:57:51.055Z,17.93
2018-02-13T04:00:19.299Z,17.43
2018-02-13T04:02:46.790Z,15.40
2018-02-13T04:05:15.030Z,16.60
2018-02-13T04:07:42.511Z,16.57
2018-02-13T04:10:10.767Z,18.60
2018-02-13T04:12:38.248Z,17.80
2018-02-13T04:15:06.532Z,19.10
2018-02-13T04:17:34.785Z,19.23
2018-02-13T04:20:02.268Z,20.70
2018-02-13T04:22:30.518Z,19.37
2018-02-13T04:24:58.014Z,19.07
2018-02-13T04:27:25.503Z,18.83
2018-02-13T04:29:52.983Z,21.40
2018-02-13T04:32:20.466Z,19.30
2018-02-13T04:34:48.710Z,19.80
2018-02-13T04:37:16.198Z,18.75
2018-02-13T04:39:44.446Z,20.77
2018-02-13T04:42:11.960Z,16.87
2018-02-13T04:44:39.441Z,17.50
2018-02-13T04:47:06.922Z,18.27
2018-02-13T04:49:34.398Z,18.33
2018-02-13T04:52:01.895Z,17.40
2018-02-13T04:54:29.371Z,17.57
2018-02-13T04:56:56.848Z,16.70
2018-02-13T04:59:24.328Z,18.87
2018-02-13T05:01:51.807Z,17.40
2018-02-13T05:04:20.067Z,16.77
2018-02-13T05:06:47.544Z,16.70
2018-02-13T05:09:15.808Z,16.50
2018-02-13T05:11:43.272Z,17.90
2018-02-13T05:14:11.528Z,15.20
2018-02-13T05:16:39.007Z,18.75
2018-02-13T05:19:07.264Z,17.67
2018-02-13T05:21:34.734Z,16.20
2018-02-13T05:24:02.989Z,18.50
2018-02-13T05:26:30.459Z,19.70
2018-02-13T05:28:59.459Z,18.97
2018-02-13T05:31:26.954Z,19.93
2018-02-13T05:33:54.462Z,20.73
2018-02-13T05:36:21.936Z,22.40
2018-02-13T05:38:50.201Z,26.00
2018-02-13T05:41:17.666Z,23.37
2018-02-13T05:43:45.265Z,23.23
2018-02-13T05:46:12.771Z,22.83
2018-02-13T05:48:40.260Z,15.75
2018-02-13T05:51:08.495Z,15.80
2018-02-13T05:53:35.985Z,14.33
2018-02-13T05:56:03.461Z,14.20
2018-02-13T05:58:31.710Z,13.53
2018-02-13T06:00:59.216Z,12.90
2018-02-13T06:03:26.714Z,13.00
2018-02-13T06:05:54.189Z,13.03
2018-02-13T06:08:21.665Z,13.87
2018-02-13T06:10:49.899Z,11.40
2018-02-13T06:13:17.387Z,13.33
2018-02-13T06:15:45.636Z,11.47
2018-02-13T06:18:13.144Z,11.27
2018-02-13T06:20:40.622Z,13.40
2018-02-13T06:23:08.110Z,11.30
2018-02-13T06:25:35.580Z,12.37
2018-02-13T06:28:03.056Z,12.00
2018-02-13T06:30:31.302Z,12.98
2018-02-13T06:32:59.558Z,11.23
2018-02-13T06:35:27.035Z,11.13
2018-02-13T06:37:54.527Z,12.50
2018-02-13T06:40:22.766Z,10.10
2018-02-13T06:42:50.243Z,11.70
2018-02-13T06:45:17.725Z,10.30
2018-02-13T06:47:45.966Z,11.40
2018-02-13T06:50:13.434Z,10.27
2018-02-13T06:52:40.931Z,9.70
2018-02-13T06:55:08.411Z,10.83
2018-02-13T06:57:35.898Z,9.87
2018-02-13T07:00:03.376Z,9.80
2018-02-13T07:02:30.852Z,10.53
2018-02-13T07:04:59.139Z,9.73
2018-02-13T07:07:26.608Z,9.80
2018-02-13T07:09:54.089Z,9.03
2018-02-13T07:12:21.545Z,10.07
2018-02-13T07:14:49.033Z,8.13
2018-02-13T07:17:16.499Z,9.00
2018-02-13T07:19:45.192Z,9.00
2018-02-13T07:22:12.668Z,9.10
2018-02-13T07:24:40.907Z,10.60
2018-02-13T07:27:08.374Z,9.23
2018-02-13T07:29:35.852Z,7.90
2018-02-13T07:32:04.095Z,7.87
2018-02-13T07:34:31.580Z,7.33
2018-02-13T07:36:59.044Z,6.90
2018-02-13T07:39:27.296Z,6.70
2018-02-13T07:41:55.291Z,6.93
2018-02-13T07:44:23.539Z,5.80
2018-02-13T07:46:51.021Z,7.70
2018-02-13T07:49:18.492Z,8.10
2018-02-13T07:51:46.724Z,6.10
2018-02-13T07:54:14.210Z,6.10
2018-02-13T07:56:41.664Z,5.80
2018-02-13T07:59:09.142Z,7.00
2018-02-13T08:01:36.620Z,6.33
2018-02-13T08:04:04.091Z,6.53
2018-02-13T08:06:31.557Z,6.97
2018-02-13T08:08:59.027Z,6.73
2018-02-13T08:11:26.563Z,6.63
2018-02-13T08:13:54.759Z,6.10
2018-02-13T08:16:22.228Z,6.57
2018-02-13T08:18:49.698Z,5.87
2018-02-13T08:21:17.160Z,6.13
2018-02-13T08:23:44.634Z,6.23
2018-02-13T08:26:12.882Z,5.13
2018-02-13T08:28:40.359Z,6.10
2018-02-13T08:31:08.603Z,5.67
2018-02-13T08:33:36.143Z,5.13
2018-02-13T08:36:03.606Z,5.07
2018-02-13T08:38:31.108Z,5.30
2018-02-13T08:40:58.570Z,4.30
2018-02-13T08:43:26.824Z,5.60
2018-02-13T08:45:54.287Z,4.50
2018-02-13T08:48:21.845Z,4.50
2018-02-13T08:50:49.316Z,4.27
2018-02-13T08:53:20.543Z,4.40
2018-02-13T08:55:48.037Z,4.63
2018-02-13T08:58:16.278Z,6.80
2018-02-13T09:00:43.734Z,5.17
2018-02-13T09:03:11.198Z,4.50
2018-02-13T09:05:38.826Z,4.77
2018-02-13T09:08:06.307Z,4.97
2018-02-13T09:10:33.787Z,4.67
2018-02-13T09:13:01.259Z,5.10
2018-02-13T09:15:29.535Z,4.20
2018-02-13T09:17:56.986Z,4.83
2018-02-13T09:20:25.272Z,4.77
2018-02-13T09:22:52.703Z,4.33
2018-02-13T09:25:20.197Z,4.30
2018-02-13T09:27:48.422Z,4.60
2018-02-13T09:30:15.906Z,4.73
2018-02-13T09:32:43.378Z,3.80
2018-02-13T09:35:11.672Z,4.40
2018-02-13T09:37:39.147Z,3.43
2018-02-13T09:40:06.614Z,4.40
2018-02-13T09:42:34.087Z,3.90
2018-02-13T09:45:01.583Z,3.20
2018-02-13T09:47:29.816Z,4.13
2018-02-13T09:49:57.306Z,3.47
2018-02-13T09:52:24.780Z,3.07
2018-02-13T09:54:53.014Z,3.67
2018-02-13T09:57:21.253Z,3.03
2018-02-13T09:59:48.723Z,2.63
2018-02-13T10:02:16.197Z,2.67
2018-02-13T10:04:43.662Z,3.23
2018-02-13T10:07:11.982Z,2.63
2018-02-13T10:09:39.443Z,2.70
2018-02-13T10:12:07.690Z,3.00
2018-02-13T10:14:35.174Z,2.70
2018-02-13T10:17:03.403Z,2.57
2018-02-13T10:19:37.048Z,2.47
2018-02-13T10:22:04.510Z,4.20
2018-02-13T10:24:32.766Z,3.67
2018-02-13T10:27:00.222Z,3.47
2018-02-13T10:29:27.707Z,3.03
2018-02-13T10:31:55.991Z,3.50
2018-02-13T10:34:23.423Z,2.77
2018-02-13T10:36:50.898Z,2.00
2018-02-13T10:39:18.371Z,3.23
2018-02-13T10:41:46.603Z,2.60
2018-02-13T10:44:14.107Z,2.80
2018-02-13T10:46:41.580Z,2.53
2018-02-13T10:49:09.059Z,3.57
2018-02-13T10:51:36.526Z,2.10
2018-02-13T10:54:03.999Z,2.43
2018-02-13T10:56:31.484Z,2.60
2018-02-13T10:58:59.729Z,2.43
2018-02-13T11:01:32.950Z,2.83
2018-02-13T11:04:02.007Z,2.87
2018-02-13T11:06:29.493Z,2.33
2018-02-13T11:08:56.956Z,2.23
2018-02-13T11:11:24.427Z,2.90
2018-02-13T11:13:52.682Z,2.50
2018-02-13T11:16:20.159Z,3.00
2018-02-13T11:18:48.399Z,2.70
2018-02-13T11:21:15.866Z,2.67
2018-02-13T11:23:43.335Z,2.60
2018-02-13T11:26:10.890Z,2.37
2018-02-13T11:28:38.363Z,2.80
2018-02-13T11:31:06.602Z,3.50
2018-02-13T11:33:34.086Z,2.60
2018-02-13T11:36:01.571Z,3.13
2018-02-13T11:38:29.814Z,2.47
2018-02-13T11:40:57.278Z,2.70
2018-02-13T11:43:24.740Z,3.10
2018-02-13T11:45:52.230Z,3.00
2018-02-13T11:48:19.687Z,3.47
2018-02-13T11:50:47.172Z,3.77
2018-02-13T11:53:14.630Z,3.50
2018-02-13T11:55:42.111Z,9.00
2018-02-13T11:58:09.567Z,2.63
2018-02-13T12:00:37.044Z,2.67
2018-02-13T12:03:04.514Z,2.70
2018-02-13T12:05:32.758Z,3.00
2018-02-13T12:08:00.239Z,2.90
2018-02-13T12:10:27.714Z,3.47
2018-02-13T12:12:55.954Z,2.73
2018-02-13T12:15:23.416Z,3.83
2018-02-13T12:17:50.941Z,3.17
2018-02-13T12:20:18.378Z,2.63
2018-02-13T12:22:45.853Z,3.00
2018-02-13T12:25:13.334Z,3.80
2018-02-13T12:27:40.839Z,3.37
2018-02-13T12:30:08.323Z,3.13
2018-02-13T12:32:35.834Z,2.40
2018-02-13T12:35:03.322Z,2.83
2018-02-13T12:37:30.798Z,2.50
2018-02-13T12:39:58.277Z,3.40
2018-02-13T12:42:25.734Z,3.40
2018-02-13T12:44:53.206Z,2.70
2018-02-13T12:47:20.688Z,2.80
2018-02-13T12:49:48.196Z,2.37
2018-02-13T12:52:15.661Z,2.30
2018-02-13T12:54:43.186Z,2.70
2018-02-13T12:57:11.415Z,2.80
2018-02-13T12:59:38.895Z,2.73
2018-02-13T13:02:06.383Z,2.03
2018-02-13T13:04:34.611Z,2.60
2018-02-13T13:07:02.091Z,2.97
2018-02-13T13:09:29.558Z,3.83
2018-02-13T13:11:57.802Z,1.87
2018-02-13T13:14:25.272Z,2.80
2018-02-13T13:16:52.754Z,3.47
2018-02-13T13:19:20.991Z,2.60
2018-02-13T13:21:48.480Z,2.73
2018-02-13T13:24:15.953Z,2.97
2018-02-13T13:26:44.216Z,3.77
2018-02-13T13:29:11.677Z,2.67
2018-02-13T13:31:39.159Z,2.30
2018-02-13T13:34:07.387Z,2.20
2018-02-13T13:36:34.895Z,2.97
2018-02-13T13:39:02.363Z,2.67
2018-02-13T13:41:29.934Z,3.20
2018-02-13T13:43:58.549Z,2.90
2018-02-13T13:46:26.032Z,2.33
2018-02-13T13:48:53.507Z,3.30
2018-02-13T13:51:21.742Z,3.20
2018-02-13T13:53:49.210Z,2.70
2018-02-13T13:56:16.686Z,3.10
2018-02-13T13:58:45.003Z,3.00
2018-02-13T14:01:12.434Z,2.00
2018-02-13T14:03:40.671Z,1.80
2018-02-13T14:06:08.972Z,2.40
2018-02-13T14:08:36.439Z,2.40
2018-02-13T14:11:04.692Z,2.20
2018-02-13T14:13:32.165Z,2.30
2018-02-13T14:16:00.422Z,1.90
2018-02-13T14:18:27.908Z,2.37
2018-02-13T14:20:56.147Z,2.23
2018-02-13T14:23:23.606Z,1.97
2018-02-13T14:25:51.115Z,2.50
2018-02-13T14:28:18.556Z,2.13
2018-02-13T14:30:46.801Z,1.83
2018-02-13T14:33:14.279Z,2.50
2018-02-13T14:35:41.780Z,2.33
2018-02-13T14:38:09.248Z,2.27
2018-02-13T14:40:36.739Z,2.50
2018-02-13T14:43:04.209Z,1.93
2018-02-13T14:45:31.680Z,2.70
2018-02-13T14:47:59.175Z,2.30
2018-02-13T14:50:26.650Z,2.60
2018-02-13T14:52:54.114Z,2.07
2018-02-13T14:55:21.624Z,2.57
2018-02-13T14:57:49.867Z,3.27
2018-02-13T15:00:17.332Z,2.33
2018-02-13T15:02:44.812Z,2.70
2018-02-13T15:05:13.057Z,2.37
2018-02-13T15:07:40.522Z,3.53
2018-02-13T15:10:07.988Z,2.77
2018-02-13T15:12:39.366Z,2.93
2018-02-13T15:15:12.257Z,2.90
2018-02-13T15:17:47.803Z,3.40
2018-02-13T15:20:15.275Z,2.90
2018-02-13T15:22:42.764Z,3.27
2018-02-13T15:25:10.224Z,2.80
2018-02-13T15:27:38.467Z,2.53
2018-02-13T15:30:05.931Z,3.93
2018-02-13T15:32:33.412Z,2.90
2018-02-13T15:35:00.875Z,3.23
2018-02-13T15:37:28.352Z,2.70
2018-02-13T15:39:55.828Z,3.07
2018-02-13T15:42:24.063Z,4.03
2018-02-13T15:44:51.531Z,2.83
2018-02-13T15:47:18.998Z,3.20
2018-02-13T15:49:48.307Z,3.73
2018-02-13T15:52:15.778Z,3.50
2018-02-13T15:54:44.011Z,3.53
2018-02-13T15:57:11.487Z,3.00
2018-02-13T15:59:38.963Z,3.60
2018-02-13T16:02:06.439Z,4.50
2018-02-13T16:04:34.663Z,3.00
2018-02-13T16:07:02.173Z,3.17
2018-02-13T16:09:30.405Z,3.60
2018-02-13T16:11:57.882Z,3.67
2018-02-13T16:14:25.409Z,3.57
2018-02-13T16:16:52.871Z,3.57
2018-02-13T16:19:20.336Z,5.93
2018-02-13T16:21:47.815Z,7.40
2018-02-13T16:24:15.292Z,5.93
2018-02-13T16:26:43.542Z,5.47
2018-02-13T16:29:11.010Z,4.00
2018-02-13T16:31:38.487Z,4.07
2018-02-13T16:34:06.872Z,4.13
2018-02-13T16:36:35.071Z,3.40
2018-02-13T16:39:02.559Z,4.03
2018-02-13T16:41:30.042Z,4.40
2018-02-13T16:43:57.506Z,3.67
2018-02-13T16:46:25.754Z,4.03
2018-02-13T16:48:53.231Z,3.10
2018-02-13T16:51:20.694Z,2.77
2018-02-13T16:53:48.183Z,3.13
2018-02-13T16:56:16.411Z,3.80
2018-02-13T16:58:43.902Z,3.03
2018-02-13T17:01:12.135Z,3.30
2018-02-13T17:03:39.653Z,4.17
2018-02-13T17:06:07.172Z,4.53
2018-02-13T17:08:34.629Z,4.10
2018-02-13T17:11:02.099Z,4.03
2018-02-13T17:13:30.357Z,4.00
2018-02-13T17:15:57.825Z,5.17
2018-02-13T17:18:25.326Z,4.43
2018-02-13T17:20:52.808Z,6.13
2018-02-13T17:23:20.290Z,4.67
2018-02-13T17:25:47.798Z,4.90
2018-02-13T17:28:15.285Z,4.70
2018-02-13T17:30:42.793Z,4.43
2018-02-13T17:33:11.039Z,4.93
2018-02-13T17:35:38.527Z,4.57
2018-02-13T17:38:06.782Z,5.93
2018-02-13T17:40:37.656Z,6.17
2018-02-13T17:43:05.887Z,6.00
2018-02-13T17:45:33.363Z,4.97
2018-02-13T17:48:00.834Z,5.20
2018-02-13T17:50:29.074Z,5.43
2018-02-13T17:52:56.586Z,5.20
2018-02-13T17:55:24.824Z,5.70
2018-02-13T17:57:52.292Z,5.53
2018-02-13T18:00:20.543Z,5.80
2018-02-13T18:02:48.016Z,5.67
2018-02-13T18:05:15.481Z,5.73
2018-02-13T18:07:42.957Z,6.50
2018-02-13T18:10:11.959Z,7.13
2018-02-13T18:12:39.387Z,6.50
2018-02-13T18:15:06.854Z,7.00
2018-02-13T18:17:34.326Z,7.00
2018-02-13T18:20:02.573Z,6.00
2018-02-13T18:22:30.051Z,5.90
2018-02-13T18:24:57.519Z,6.10
2018-02-13T18:27:25.427Z,5.70
2018-02-13T18:29:52.903Z,5.80
2018-02-13T18:32:20.407Z,6.90
2018-02-13T18:34:48.635Z,6.57
2018-02-13T18:37:16.130Z,6.80
2018-02-13T18:39:44.378Z,7.30
2018-02-13T18:42:12.675Z,6.47
2018-02-13T18:44:41.609Z,7.07
2018-02-13T18:47:09.085Z,7.57
2018-02-13T18:49:36.550Z,6.90
2018-02-13T18:52:04.023Z,8.10
2018-02-13T18:54:32.284Z,7.17
2018-02-13T18:56:59.761Z,6.50
2018-02-13T18:59:28.434Z,7.47
2018-02-13T19:01:55.902Z,7.20
2018-02-13T19:04:23.395Z,8.10
2018-02-13T19:06:53.413Z,7.70
2018-02-13T19:09:21.646Z,7.40
2018-02-13T19:11:49.136Z,7.90
2018-02-13T19:14:16.601Z,7.83
2018-02-13T19:19:12.311Z,6.83
2018-02-13T19:21:39.784Z,7.77
2018-02-13T19:24:08.039Z,7.90
2018-02-13T19:26:35.512Z,7.70
2018-02-13T19:29:02.991Z,6.83
2018-02-13T19:31:31.219Z,6.87
2018-02-13T19:33:58.702Z,7.53
2018-02-13T19:36:26.214Z,8.40
2018-02-13T19:38:53.678Z,8.03
2018-02-13T19:41:21.996Z,8.00
2018-02-13T19:43:49.478Z,8.20
2018-02-13T19:46:16.960Z,7.60
2018-02-13T19:48:44.450Z,8.20
2018-02-13T19:51:11.924Z,8.57
2018-02-13T19:53:39.420Z,7.93
2018-02-13T19:56:06.903Z,8.48
2018-02-13T19:58:34.397Z,7.70
2018-02-13T20:01:01.885Z,7.35
2018-02-13T20:03:30.134Z,8.00
2018-02-13T20:05:57.619Z,8.18
2018-02-13T20:08:25.896Z,7.73
2018-02-13T20:10:54.130Z,7.60
2018-02-13T20:13:21.621Z,8.40
2018-02-13T20:15:49.866Z,9.60
2018-02-13T20:18:17.351Z,9.82
2018-02-13T20:20:45.618Z,10.03
2018-02-13T20:23:13.128Z,9.45
2018-02-13T20:25:40.614Z,9.53
2018-02-13T20:28:08.099Z,8.88
2018-02-13T20:30:36.351Z,8.45
2018-02-13T20:33:03.844Z,9.27
2018-02-13T20:35:32.927Z,11.80
2018-02-13T20:38:01.190Z,10.75
2018-02-13T20:40:28.667Z,10.38
2018-02-13T20:42:56.918Z,11.30
2018-02-13T20:45:24.420Z,11.12
2018-02-13T20:47:52.676Z,11.50
2018-02-13T20:50:20.923Z,11.03
2018-02-13T20:52:48.411Z,11.55
2018-02-13T20:55:16.660Z,12.25
2018-02-13T20:57:44.179Z,12.60
2018-02-13T21:00:11.678Z,11.32
2018-02-13T21:02:39.166Z,12.30
2018-02-13T21:05:07.420Z,10.75
2018-02-13T21:07:34.907Z,12.50
2018-02-13T21:10:03.162Z,10.60
2018-02-13T21:12:30.652Z,11.95
2018-02-13T21:14:58.151Z,13.30
2018-02-13T21:17:25.636Z,15.25
2018-02-13T21:19:53.169Z,16.83
2018-02-13T21:22:20.674Z,14.52
2018-02-13T21:24:48.925Z,15.20
2018-02-13T21:27:16.402Z,12.55
2018-02-13T21:29:44.654Z,12.63
2018-02-13T21:32:12.144Z,12.15
2018-02-13T21:34:39.632Z,12.40
2018-02-13T21:37:07.106Z,10.65
2018-02-13T21:39:35.364Z,10.37
2018-02-13T21:42:02.848Z,10.30
2018-02-13T21:44:30.335Z,10.75
2018-02-13T21:46:57.811Z,10.68
2018-02-13T21:49:26.093Z,10.50
2018-02-13T21:51:54.327Z,9.30
2018-02-13T21:54:21.821Z,9.73
2018-02-13T21:56:50.064Z,11.57
2018-02-13T21:59:17.551Z,11.10
2018-02-13T22:01:45.810Z,12.15
2018-02-13T22:04:13.308Z,10.80
2018-02-13T22:06:40.787Z,11.70
2018-02-13T22:09:08.275Z,10.15
2018-02-13T22:11:35.767Z,9.15
2018-02-13T22:14:04.011Z,8.75
2018-02-13T22:16:31.490Z,10.43
2018-02-13T22:18:58.979Z,9.45
2018-02-13T22:21:26.462Z,10.15
2018-02-13T22:23:53.963Z,8.55
2018-02-13T22:26:21.455Z,8.80
2018-02-13T22:28:48.939Z,9.95
2018-02-13T22:31:16.424Z,9.73
2018-02-13T22:33:43.903Z,10.05
2018-02-13T22:36:12.152Z,10.43
2018-02-13T22:38:39.626Z,9.88
2018-02-13T22:41:07.119Z,8.35
2018-02-13T22:43:34.594Z,7.35
2018-02-13T22:46:02.087Z,7.45
2018-02-13T22:48:29.575Z,8.32
2018-02-13T22:50:57.826Z,8.02
2018-02-13T22:53:25.318Z,8.10
2018-02-13T22:55:52.790Z,8.45
2018-02-13T22:58:20.278Z,7.53
2018-02-13T23:00:48.519Z,7.75
2018-02-13T23:03:16.003Z,7.72
2018-02-13T23:05:43.474Z,7.23
2018-02-13T23:08:10.952Z,7.45
2018-02-13T23:10:38.441Z,8.48
2018-02-13T23:13:06.694Z,7.80
2018-02-13T23:15:34.172Z,7.50
2018-02-13T23:18:02.447Z,7.90
2018-02-13T23:20:30.696Z,8.07
2018-02-13T23:22:58.173Z,6.95
2018-02-13T23:25:26.420Z,7.37
2018-02-13T23:27:53.900Z,7.22
2018-02-13T23:30:21.386Z,7.85
2018-02-13T23:32:48.891Z,6.68
2018-02-13T23:35:16.389Z,8.27
2018-02-13T23:37:44.627Z,8.15
2018-02-13T23:40:12.118Z,8.82
2018-02-13T23:42:40.356Z,8.93
2018-02-13T23:45:07.846Z,7.80
2018-02-13T23:47:36.095Z,7.15
2018-02-13T23:50:03.579Z,8.88
2018-02-13T23:52:31.052Z,7.25
2018-02-13T23:54:59.307Z,7.47
2018-02-13T23:57:26.786Z,7.75
2018-02-13T23:59:55.045Z,8.32
